sensor_id;sensor_type;location;lat;lon;timestamp;P1;durP1;ratioP1;P2;durP2;ratioP2
82352;SDS011;71954;47.430;18.920;2023-11-18T00:00:55;5.68;;;3.35;;
82352;SDS011;71954;47.430;18.920;2023-11-18T00:03:22;7.78;;;3.40;;
82352;SDS011;71954;47.430;18.920;2023-11-18T00:05:49;7.60;;;3.83;;
82352;SDS011;71954;47.430;18.920;2023-11-18T00:08:15;7.70;;;4.15;;
82352;SDS011;71954;47.430;18.920;2023-11-18T00:10:42;6.72;;;3.70;;
82352;SDS011;71954;47.430;18.920;2023-11-18T00:13:09;5.85;;;2.50;;
82352;SDS011;71954;47.430;18.920;2023-11-18T00:15:35;6.93;;;3.97;;
82352;SDS011;71954;47.430;18.920;2023-11-18T00:18:02;6.85;;;4.18;;
82352;SDS011;71954;47.430;18.920;2023-11-18T00:20:29;7.30;;;3.40;;
82352;SDS011;71954;47.430;18.920;2023-11-18T00:22:57;6.47;;;3.97;;
82352;SDS011;71954;47.430;18.920;2023-11-18T00:25:24;10.93;;;4.40;;
82352;SDS011;71954;47.430;18.920;2023-11-18T00:27:51;6.55;;;3.60;;
82352;SDS011;71954;47.430;18.920;2023-11-18T00:30:18;8.18;;;3.55;;
82352;SDS011;71954;47.430;18.920;2023-11-18T00:32:44;9.02;;;4.05;;
82352;SDS011;71954;47.430;18.920;2023-11-18T00:35:11;7.13;;;4.22;;
82352;SDS011;71954;47.430;18.920;2023-11-18T00:37:38;6.60;;;3.88;;
82352;SDS011;71954;47.430;18.920;2023-11-18T00:40:05;6.85;;;4.10;;
82352;SDS011;71954;47.430;18.920;2023-11-18T00:42:33;6.70;;;3.20;;
82352;SDS011;71954;47.430;18.920;2023-11-18T00:45:00;6.85;;;3.63;;
82352;SDS011;71954;47.430;18.920;2023-11-18T00:47:26;7.05;;;3.95;;
82352;SDS011;71954;47.430;18.920;2023-11-18T00:49:53;8.38;;;4.20;;
82352;SDS011;71954;47.430;18.920;2023-11-18T00:52:20;7.15;;;4.03;;
82352;SDS011;71954;47.430;18.920;2023-11-18T00:54:47;7.55;;;4.00;;
82352;SDS011;71954;47.430;18.920;2023-11-18T00:57:14;5.88;;;3.15;;
82352;SDS011;71954;47.430;18.920;2023-11-18T00:59:43;6.65;;;3.47;;
82352;SDS011;71954;47.430;18.920;2023-11-18T01:02:10;6.97;;;3.45;;
82352;SDS011;71954;47.430;18.920;2023-11-18T01:04:37;12.60;;;4.70;;
82352;SDS011;71954;47.430;18.920;2023-11-18T01:07:04;8.52;;;2.80;;
82352;SDS011;71954;47.430;18.920;2023-11-18T01:09:30;8.30;;;3.90;;
82352;SDS011;71954;47.430;18.920;2023-11-18T01:12:03;7.30;;;4.13;;
82352;SDS011;71954;47.430;18.920;2023-11-18T01:14:34;5.75;;;2.78;;
82352;SDS011;71954;47.430;18.920;2023-11-18T01:17:03;4.22;;;2.67;;
82352;SDS011;71954;47.430;18.920;2023-11-18T01:19:32;6.53;;;3.67;;
82352;SDS011;71954;47.430;18.920;2023-11-18T01:22:00;6.63;;;3.55;;
82352;SDS011;71954;47.430;18.920;2023-11-18T01:24:27;6.50;;;3.05;;
82352;SDS011;71954;47.430;18.920;2023-11-18T01:26:54;8.70;;;3.35;;
82352;SDS011;71954;47.430;18.920;2023-11-18T01:29:21;5.93;;;2.72;;
82352;SDS011;71954;47.430;18.920;2023-11-18T01:34:18;6.15;;;3.10;;
82352;SDS011;71954;47.430;18.920;2023-11-18T01:36:48;5.80;;;3.35;;
82352;SDS011;71954;47.430;18.920;2023-11-18T01:39:18;6.35;;;3.35;;
82352;SDS011;71954;47.430;18.920;2023-11-18T01:41:45;5.03;;;2.47;;
82352;SDS011;71954;47.430;18.920;2023-11-18T01:44:12;6.68;;;3.53;;
82352;SDS011;71954;47.430;18.920;2023-11-18T01:46:42;5.45;;;2.75;;
82352;SDS011;71954;47.430;18.920;2023-11-18T01:49:12;6.88;;;3.17;;
82352;SDS011;71954;47.430;18.920;2023-11-18T01:51:43;5.20;;;2.70;;
82352;SDS011;71954;47.430;18.920;2023-11-18T01:54:12;6.75;;;3.28;;
82352;SDS011;71954;47.430;18.920;2023-11-18T01:56:43;8.52;;;4.40;;
82352;SDS011;71954;47.430;18.920;2023-11-18T01:59:13;6.95;;;3.30;;
82352;SDS011;71954;47.430;18.920;2023-11-18T02:02:02;9.52;;;2.95;;
82352;SDS011;71954;47.430;18.920;2023-11-18T02:04:29;4.93;;;2.58;;
82352;SDS011;71954;47.430;18.920;2023-11-18T02:06:57;6.35;;;3.50;;
82352;SDS011;71954;47.430;18.920;2023-11-18T02:09:24;5.90;;;2.83;;
82352;SDS011;71954;47.430;18.920;2023-11-18T02:14:50;4.07;;;2.30;;
82352;SDS011;71954;47.430;18.920;2023-11-18T02:17:18;5.20;;;2.47;;
82352;SDS011;71954;47.430;18.920;2023-11-18T02:22:18;7.50;;;2.95;;
82352;SDS011;71954;47.430;18.920;2023-11-18T02:24:45;6.38;;;3.63;;
82352;SDS011;71954;47.430;18.920;2023-11-18T02:27:13;6.82;;;2.92;;
82352;SDS011;71954;47.430;18.920;2023-11-18T02:29:41;8.48;;;3.45;;
82352;SDS011;71954;47.430;18.920;2023-11-18T02:34:58;5.60;;;3.38;;
82352;SDS011;71954;47.430;18.920;2023-11-18T02:37:38;6.18;;;3.20;;
82352;SDS011;71954;47.430;18.920;2023-11-18T02:40:06;5.30;;;2.88;;
82352;SDS011;71954;47.430;18.920;2023-11-18T02:42:41;6.03;;;3.13;;
82352;SDS011;71954;47.430;18.920;2023-11-18T02:45:10;6.10;;;3.10;;
82352;SDS011;71954;47.430;18.920;2023-11-18T02:47:41;6.72;;;2.72;;
82352;SDS011;71954;47.430;18.920;2023-11-18T02:50:10;5.93;;;3.00;;
82352;SDS011;71954;47.430;18.920;2023-11-18T02:52:37;4.88;;;2.75;;
82352;SDS011;71954;47.430;18.920;2023-11-18T02:55:05;7.07;;;3.47;;
82352;SDS011;71954;47.430;18.920;2023-11-18T02:57:35;7.38;;;3.25;;
82352;SDS011;71954;47.430;18.920;2023-11-18T03:00:05;6.97;;;3.75;;
82352;SDS011;71954;47.430;18.920;2023-11-18T03:02:38;7.55;;;3.60;;
82352;SDS011;71954;47.430;18.920;2023-11-18T03:05:09;5.13;;;2.67;;
82352;SDS011;71954;47.430;18.920;2023-11-18T03:07:38;5.45;;;3.22;;
82352;SDS011;71954;47.430;18.920;2023-11-18T03:10:05;5.25;;;2.83;;
82352;SDS011;71954;47.430;18.920;2023-11-18T03:12:37;4.93;;;2.65;;
82352;SDS011;71954;47.430;18.920;2023-11-18T03:15:07;5.38;;;2.75;;
82352;SDS011;71954;47.430;18.920;2023-11-18T03:17:38;5.07;;;2.97;;
82352;SDS011;71954;47.430;18.920;2023-11-18T03:20:05;6.47;;;3.55;;
82352;SDS011;71954;47.430;18.920;2023-11-18T03:22:38;6.80;;;3.10;;
82352;SDS011;71954;47.430;18.920;2023-11-18T03:25:05;5.38;;;3.10;;
82352;SDS011;71954;47.430;18.920;2023-11-18T03:27:32;6.07;;;3.55;;
82352;SDS011;71954;47.430;18.920;2023-11-18T03:29:58;4.70;;;2.67;;
82352;SDS011;71954;47.430;18.920;2023-11-18T03:32:25;7.05;;;3.38;;
82352;SDS011;71954;47.430;18.920;2023-11-18T03:34:52;7.78;;;3.30;;
82352;SDS011;71954;47.430;18.920;2023-11-18T03:37:18;5.10;;;2.25;;
82352;SDS011;71954;47.430;18.920;2023-11-18T03:39:45;4.78;;;2.30;;
82352;SDS011;71954;47.430;18.920;2023-11-18T03:42:12;6.15;;;2.83;;
82352;SDS011;71954;47.430;18.920;2023-11-18T03:44:38;4.53;;;2.25;;
82352;SDS011;71954;47.430;18.920;2023-11-18T03:47:05;5.70;;;2.95;;
82352;SDS011;71954;47.430;18.920;2023-11-18T03:49:33;7.32;;;3.65;;
82352;SDS011;71954;47.430;18.920;2023-11-18T03:51:59;7.00;;;2.63;;
82352;SDS011;71954;47.430;18.920;2023-11-18T03:54:26;6.68;;;3.50;;
82352;SDS011;71954;47.430;18.920;2023-11-18T03:56:52;5.63;;;3.08;;
82352;SDS011;71954;47.430;18.920;2023-11-18T03:59:19;7.25;;;3.47;;
82352;SDS011;71954;47.430;18.920;2023-11-18T04:01:46;6.43;;;2.97;;
82352;SDS011;71954;47.430;18.920;2023-11-18T04:04:15;4.93;;;3.05;;
82352;SDS011;71954;47.430;18.920;2023-11-18T04:09:09;5.90;;;2.83;;
82352;SDS011;71954;47.430;18.920;2023-11-18T04:11:36;6.20;;;2.97;;
82352;SDS011;71954;47.430;18.920;2023-11-18T04:14:04;4.68;;;2.83;;
82352;SDS011;71954;47.430;18.920;2023-11-18T04:16:31;3.78;;;1.80;;
82352;SDS011;71954;47.430;18.920;2023-11-18T04:18:58;5.15;;;2.88;;
82352;SDS011;71954;47.430;18.920;2023-11-18T04:21:24;5.72;;;2.60;;
82352;SDS011;71954;47.430;18.920;2023-11-18T04:23:51;4.20;;;2.40;;
82352;SDS011;71954;47.430;18.920;2023-11-18T04:26:18;5.75;;;2.88;;
82352;SDS011;71954;47.430;18.920;2023-11-18T04:28:44;4.75;;;2.63;;
82352;SDS011;71954;47.430;18.920;2023-11-18T04:31:11;5.30;;;2.90;;
82352;SDS011;71954;47.430;18.920;2023-11-18T04:33:37;5.70;;;2.30;;
82352;SDS011;71954;47.430;18.920;2023-11-18T04:36:07;5.05;;;3.30;;
82352;SDS011;71954;47.430;18.920;2023-11-18T04:38:36;3.85;;;2.45;;
82352;SDS011;71954;47.430;18.920;2023-11-18T04:41:02;5.40;;;3.10;;
82352;SDS011;71954;47.430;18.920;2023-11-18T04:43:30;6.10;;;2.85;;
82352;SDS011;71954;47.430;18.920;2023-11-18T04:46:10;4.80;;;2.95;;
82352;SDS011;71954;47.430;18.920;2023-11-18T04:48:37;5.03;;;2.92;;
82352;SDS011;71954;47.430;18.920;2023-11-18T04:51:07;6.20;;;3.50;;
82352;SDS011;71954;47.430;18.920;2023-11-18T04:53:34;6.72;;;3.35;;
82352;SDS011;71954;47.430;18.920;2023-11-18T04:56:01;6.10;;;3.15;;
82352;SDS011;71954;47.430;18.920;2023-11-18T04:58:27;4.30;;;2.42;;
82352;SDS011;71954;47.430;18.920;2023-11-18T05:00:54;5.82;;;3.08;;
82352;SDS011;71954;47.430;18.920;2023-11-18T05:03:21;5.38;;;2.78;;
82352;SDS011;71954;47.430;18.920;2023-11-18T05:05:48;5.03;;;2.40;;
82352;SDS011;71954;47.430;18.920;2023-11-18T05:08:19;6.22;;;3.03;;
82352;SDS011;71954;47.430;18.920;2023-11-18T05:10:47;3.20;;;2.00;;
82352;SDS011;71954;47.430;18.920;2023-11-18T05:13:15;3.05;;;1.75;;
82352;SDS011;71954;47.430;18.920;2023-11-18T05:15:43;3.55;;;1.98;;
82352;SDS011;71954;47.430;18.920;2023-11-18T05:18:13;3.70;;;2.25;;
82352;SDS011;71954;47.430;18.920;2023-11-18T05:20:42;3.30;;;1.83;;
82352;SDS011;71954;47.430;18.920;2023-11-18T05:23:10;3.55;;;1.98;;
82352;SDS011;71954;47.430;18.920;2023-11-18T05:25:41;4.80;;;2.45;;
82352;SDS011;71954;47.430;18.920;2023-11-18T05:28:12;5.57;;;2.70;;
82352;SDS011;71954;47.430;18.920;2023-11-18T05:30:41;4.18;;;2.00;;
82352;SDS011;71954;47.430;18.920;2023-11-18T05:33:09;4.15;;;2.15;;
82352;SDS011;71954;47.430;18.920;2023-11-18T05:35:41;5.43;;;2.72;;
82352;SDS011;71954;47.430;18.920;2023-11-18T05:38:15;8.35;;;3.50;;
82352;SDS011;71954;47.430;18.920;2023-11-18T05:40:45;5.10;;;2.78;;
82352;SDS011;71954;47.430;18.920;2023-11-18T05:43:26;4.80;;;1.90;;
82352;SDS011;71954;47.430;18.920;2023-11-18T05:46:02;5.05;;;2.67;;
82352;SDS011;71954;47.430;18.920;2023-11-18T05:48:41;5.07;;;2.10;;
82352;SDS011;71954;47.430;18.920;2023-11-18T05:51:10;5.40;;;2.58;;
82352;SDS011;71954;47.430;18.920;2023-11-18T05:53:40;5.05;;;2.13;;
82352;SDS011;71954;47.430;18.920;2023-11-18T05:56:08;4.80;;;2.28;;
82352;SDS011;71954;47.430;18.920;2023-11-18T05:58:34;4.90;;;2.88;;
82352;SDS011;71954;47.430;18.920;2023-11-18T06:01:01;5.05;;;2.53;;
82352;SDS011;71954;47.430;18.920;2023-11-18T06:03:28;7.85;;;2.67;;
82352;SDS011;71954;47.430;18.920;2023-11-18T06:05:55;5.63;;;2.65;;
82352;SDS011;71954;47.430;18.920;2023-11-18T06:08:22;5.28;;;3.08;;
82352;SDS011;71954;47.430;18.920;2023-11-18T06:10:49;3.83;;;2.33;;
82352;SDS011;71954;47.430;18.920;2023-11-18T06:13:18;4.72;;;2.17;;
82352;SDS011;71954;47.430;18.920;2023-11-18T06:15:44;9.60;;;2.85;;
82352;SDS011;71954;47.430;18.920;2023-11-18T06:18:11;3.38;;;1.52;;
82352;SDS011;71954;47.430;18.920;2023-11-18T06:20:37;3.78;;;2.08;;
82352;SDS011;71954;47.430;18.920;2023-11-18T06:23:04;5.35;;;2.70;;
82352;SDS011;71954;47.430;18.920;2023-11-18T06:25:31;4.28;;;2.10;;
82352;SDS011;71954;47.430;18.920;2023-11-18T06:27:58;5.40;;;2.20;;
82352;SDS011;71954;47.430;18.920;2023-11-18T06:30:24;3.20;;;1.83;;
82352;SDS011;71954;47.430;18.920;2023-11-18T06:32:52;4.60;;;2.50;;
82352;SDS011;71954;47.430;18.920;2023-11-18T06:35:19;5.78;;;2.55;;
82352;SDS011;71954;47.430;18.920;2023-11-18T06:37:47;3.78;;;2.13;;
82352;SDS011;71954;47.430;18.920;2023-11-18T06:40:14;4.07;;;2.00;;
82352;SDS011;71954;47.430;18.920;2023-11-18T06:42:45;4.55;;;2.03;;
82352;SDS011;71954;47.430;18.920;2023-11-18T06:45:14;3.90;;;2.22;;
82352;SDS011;71954;47.430;18.920;2023-11-18T06:47:41;2.78;;;1.30;;
82352;SDS011;71954;47.430;18.920;2023-11-18T06:50:12;3.38;;;1.65;;
82352;SDS011;71954;47.430;18.920;2023-11-18T06:52:42;4.57;;;2.10;;
82352;SDS011;71954;47.430;18.920;2023-11-18T06:55:14;4.10;;;2.03;;
82352;SDS011;71954;47.430;18.920;2023-11-18T06:57:41;3.70;;;1.65;;
82352;SDS011;71954;47.430;18.920;2023-11-18T07:00:11;4.30;;;2.20;;
82352;SDS011;71954;47.430;18.920;2023-11-18T07:02:40;3.97;;;1.45;;
82352;SDS011;71954;47.430;18.920;2023-11-18T07:05:07;4.72;;;2.15;;
82352;SDS011;71954;47.430;18.920;2023-11-18T07:07:34;3.75;;;1.73;;
82352;SDS011;71954;47.430;18.920;2023-11-18T07:10:01;4.28;;;2.13;;
82352;SDS011;71954;47.430;18.920;2023-11-18T07:12:28;4.65;;;2.50;;
82352;SDS011;71954;47.430;18.920;2023-11-18T07:14:58;3.75;;;1.90;;
82352;SDS011;71954;47.430;18.920;2023-11-18T07:17:31;3.60;;;2.05;;
82352;SDS011;71954;47.430;18.920;2023-11-18T07:19:57;3.80;;;1.90;;
82352;SDS011;71954;47.430;18.920;2023-11-18T07:22:24;4.82;;;1.98;;
82352;SDS011;71954;47.430;18.920;2023-11-18T07:24:51;5.47;;;2.00;;
82352;SDS011;71954;47.430;18.920;2023-11-18T07:27:18;5.78;;;2.45;;
82352;SDS011;71954;47.430;18.920;2023-11-18T07:29:44;4.20;;;1.80;;
82352;SDS011;71954;47.430;18.920;2023-11-18T07:32:11;6.82;;;3.15;;
82352;SDS011;71954;47.430;18.920;2023-11-18T07:34:38;5.93;;;2.67;;
82352;SDS011;71954;47.430;18.920;2023-11-18T07:37:05;4.68;;;2.40;;
82352;SDS011;71954;47.430;18.920;2023-11-18T07:39:31;3.97;;;1.92;;
82352;SDS011;71954;47.430;18.920;2023-11-18T07:42:11;4.15;;;1.90;;
82352;SDS011;71954;47.430;18.920;2023-11-18T07:44:38;5.30;;;1.88;;
82352;SDS011;71954;47.430;18.920;2023-11-18T07:47:05;4.72;;;2.20;;
82352;SDS011;71954;47.430;18.920;2023-11-18T07:49:33;3.83;;;1.88;;
82352;SDS011;71954;47.430;18.920;2023-11-18T07:52:02;4.47;;;2.42;;
82352;SDS011;71954;47.430;18.920;2023-11-18T07:54:29;4.30;;;2.65;;
82352;SDS011;71954;47.430;18.920;2023-11-18T07:56:56;2.97;;;1.75;;
82352;SDS011;71954;47.430;18.920;2023-11-18T07:59:23;4.15;;;1.95;;
82352;SDS011;71954;47.430;18.920;2023-11-18T08:01:50;4.60;;;2.30;;
82352;SDS011;71954;47.430;18.920;2023-11-18T08:04:17;5.07;;;2.20;;
82352;SDS011;71954;47.430;18.920;2023-11-18T08:06:47;4.28;;;2.28;;
82352;SDS011;71954;47.430;18.920;2023-11-18T08:09:15;4.47;;;2.08;;
82352;SDS011;71954;47.430;18.920;2023-11-18T08:11:49;4.00;;;2.03;;
82352;SDS011;71954;47.430;18.920;2023-11-18T08:14:15;3.63;;;2.00;;
82352;SDS011;71954;47.430;18.920;2023-11-18T08:16:42;3.33;;;1.63;;
82352;SDS011;71954;47.430;18.920;2023-11-18T08:19:09;3.97;;;1.60;;
82352;SDS011;71954;47.430;18.920;2023-11-18T08:21:36;3.00;;;1.80;;
82352;SDS011;71954;47.430;18.920;2023-11-18T08:24:07;3.90;;;1.48;;
82352;SDS011;71954;47.430;18.920;2023-11-18T08:26:35;3.33;;;1.77;;
82352;SDS011;71954;47.430;18.920;2023-11-18T08:29:02;2.67;;;1.63;;
82352;SDS011;71954;47.430;18.920;2023-11-18T08:31:29;3.83;;;1.90;;
82352;SDS011;71954;47.430;18.920;2023-11-18T08:33:55;3.17;;;1.63;;
82352;SDS011;71954;47.430;18.920;2023-11-18T08:36:22;5.28;;;1.70;;
82352;SDS011;71954;47.430;18.920;2023-11-18T08:38:49;3.92;;;1.77;;
82352;SDS011;71954;47.430;18.920;2023-11-18T08:41:16;3.30;;;1.63;;
82352;SDS011;71954;47.430;18.920;2023-11-18T08:43:42;3.35;;;1.52;;
82352;SDS011;71954;47.430;18.920;2023-11-18T08:46:09;3.53;;;1.33;;
82352;SDS011;71954;47.430;18.920;2023-11-18T08:48:36;3.33;;;1.70;;
82352;SDS011;71954;47.430;18.920;2023-11-18T08:51:04;4.38;;;1.33;;
82352;SDS011;71954;47.430;18.920;2023-11-18T08:53:35;3.75;;;1.48;;
82352;SDS011;71954;47.430;18.920;2023-11-18T08:56:08;4.72;;;1.98;;
82352;SDS011;71954;47.430;18.920;2023-11-18T08:58:41;2.40;;;1.25;;
82352;SDS011;71954;47.430;18.920;2023-11-18T09:01:15;2.50;;;1.13;;
82352;SDS011;71954;47.430;18.920;2023-11-18T09:03:42;2.70;;;1.55;;
82352;SDS011;71954;47.430;18.920;2023-11-18T09:08:53;2.25;;;1.10;;
82352;SDS011;71954;47.430;18.920;2023-11-18T09:11:23;3.42;;;1.45;;
82352;SDS011;71954;47.430;18.920;2023-11-18T09:13:55;3.78;;;1.65;;
82352;SDS011;71954;47.430;18.920;2023-11-18T09:16:27;3.30;;;1.33;;
82352;SDS011;71954;47.430;18.920;2023-11-18T09:18:57;2.33;;;1.15;;
82352;SDS011;71954;47.430;18.920;2023-11-18T09:21:29;3.95;;;1.40;;
82352;SDS011;71954;47.430;18.920;2023-11-18T09:23:57;3.97;;;1.95;;
82352;SDS011;71954;47.430;18.920;2023-11-18T09:26:24;2.65;;;1.27;;
82352;SDS011;71954;47.430;18.920;2023-11-18T09:28:52;3.08;;;1.20;;
82352;SDS011;71954;47.430;18.920;2023-11-18T09:31:20;4.65;;;1.63;;
82352;SDS011;71954;47.430;18.920;2023-11-18T09:33:48;3.28;;;1.42;;
82352;SDS011;71954;47.430;18.920;2023-11-18T09:36:24;2.53;;;1.25;;
82352;SDS011;71954;47.430;18.920;2023-11-18T09:38:50;2.97;;;1.38;;
82352;SDS011;71954;47.430;18.920;2023-11-18T09:41:18;3.50;;;1.83;;
82352;SDS011;71954;47.430;18.920;2023-11-18T09:43:45;2.55;;;1.13;;
82352;SDS011;71954;47.430;18.920;2023-11-18T09:46:14;5.00;;;2.00;;
82352;SDS011;71954;47.430;18.920;2023-11-18T09:48:43;3.03;;;1.23;;
82352;SDS011;71954;47.430;18.920;2023-11-18T09:51:23;3.08;;;1.50;;
82352;SDS011;71954;47.430;18.920;2023-11-18T09:53:51;5.25;;;2.33;;
82352;SDS011;71954;47.430;18.920;2023-11-18T09:56:23;3.67;;;1.50;;
82352;SDS011;71954;47.430;18.920;2023-11-18T10:02:03;4.03;;;1.83;;
82352;SDS011;71954;47.430;18.920;2023-11-18T10:04:31;4.47;;;1.77;;
82352;SDS011;71954;47.430;18.920;2023-11-18T10:06:58;3.53;;;1.50;;
82352;SDS011;71954;47.430;18.920;2023-11-18T10:09:28;3.65;;;1.55;;
82352;SDS011;71954;47.430;18.920;2023-11-18T10:12:03;2.13;;;0.93;;
82352;SDS011;71954;47.430;18.920;2023-11-18T10:14:34;3.05;;;1.42;;
82352;SDS011;71954;47.430;18.920;2023-11-18T10:17:05;3.28;;;1.48;;
82352;SDS011;71954;47.430;18.920;2023-11-18T10:22:22;3.30;;;1.23;;
82352;SDS011;71954;47.430;18.920;2023-11-18T10:27:24;6.15;;;1.17;;
82352;SDS011;71954;47.430;18.920;2023-11-18T10:29:54;3.53;;;1.65;;
82352;SDS011;71954;47.430;18.920;2023-11-18T10:32:22;2.97;;;1.35;;
82352;SDS011;71954;47.430;18.920;2023-11-18T10:34:55;3.20;;;1.40;;
82352;SDS011;71954;47.430;18.920;2023-11-18T10:37:25;2.70;;;1.80;;
82352;SDS011;71954;47.430;18.920;2023-11-18T10:39:52;2.45;;;1.20;;
82352;SDS011;71954;47.430;18.920;2023-11-18T10:42:19;2.45;;;1.02;;
82352;SDS011;71954;47.430;18.920;2023-11-18T10:44:55;3.88;;;1.48;;
82352;SDS011;71954;47.430;18.920;2023-11-18T10:47:33;3.45;;;1.67;;
82352;SDS011;71954;47.430;18.920;2023-11-18T10:50:02;9.65;;;1.52;;
82352;SDS011;71954;47.430;18.920;2023-11-18T10:52:29;2.58;;;1.38;;
82352;SDS011;71954;47.430;18.920;2023-11-18T10:55:01;2.97;;;1.35;;
82352;SDS011;71954;47.430;18.920;2023-11-18T10:57:38;3.40;;;1.25;;
82352;SDS011;71954;47.430;18.920;2023-11-18T11:00:09;2.47;;;1.23;;
82352;SDS011;71954;47.430;18.920;2023-11-18T11:02:58;1.77;;;0.85;;
82352;SDS011;71954;47.430;18.920;2023-11-18T11:05:29;1.80;;;0.90;;
82352;SDS011;71954;47.430;18.920;2023-11-18T11:07:59;1.83;;;0.98;;
82352;SDS011;71954;47.430;18.920;2023-11-18T11:10:31;2.33;;;1.15;;
82352;SDS011;71954;47.430;18.920;2023-11-18T11:13:00;2.58;;;1.25;;
82352;SDS011;71954;47.430;18.920;2023-11-18T11:15:32;3.28;;;1.38;;
82352;SDS011;71954;47.430;18.920;2023-11-18T11:18:20;3.28;;;1.45;;
82352;SDS011;71954;47.430;18.920;2023-11-18T11:21:37;1.88;;;0.98;;
82352;SDS011;71954;47.430;18.920;2023-11-18T11:30:10;2.33;;;1.30;;
82352;SDS011;71954;47.430;18.920;2023-11-18T11:32:50;3.30;;;1.63;;
82352;SDS011;71954;47.430;18.920;2023-11-18T11:35:22;2.60;;;1.38;;
82352;SDS011;71954;47.430;18.920;2023-11-18T11:37:50;3.15;;;1.42;;
82352;SDS011;71954;47.430;18.920;2023-11-18T11:40:20;2.75;;;1.35;;
82352;SDS011;71954;47.430;18.920;2023-11-18T11:42:52;2.63;;;1.10;;
82352;SDS011;71954;47.430;18.920;2023-11-18T11:45:22;2.80;;;1.20;;
82352;SDS011;71954;47.430;18.920;2023-11-18T11:47:54;2.05;;;1.00;;
82352;SDS011;71954;47.430;18.920;2023-11-18T11:50:44;2.28;;;1.00;;
82352;SDS011;71954;47.430;18.920;2023-11-18T11:53:21;2.38;;;0.95;;
82352;SDS011;71954;47.430;18.920;2023-11-18T11:55:53;2.33;;;1.15;;
82352;SDS011;71954;47.430;18.920;2023-11-18T11:58:32;2.55;;;1.00;;
82352;SDS011;71954;47.430;18.920;2023-11-18T12:01:14;3.20;;;1.27;;
82352;SDS011;71954;47.430;18.920;2023-11-18T12:04:03;3.00;;;1.48;;
82352;SDS011;71954;47.430;18.920;2023-11-18T12:06:33;2.72;;;0.93;;
82352;SDS011;71954;47.430;18.920;2023-11-18T12:09:08;2.35;;;1.05;;
82352;SDS011;71954;47.430;18.920;2023-11-18T12:11:36;2.58;;;1.15;;
82352;SDS011;71954;47.430;18.920;2023-11-18T12:14:06;1.98;;;0.75;;
82352;SDS011;71954;47.430;18.920;2023-11-18T12:19:48;2.55;;;1.00;;
82352;SDS011;71954;47.430;18.920;2023-11-18T12:41:36;3.17;;;1.33;;
82352;SDS011;71954;47.430;18.920;2023-11-18T12:47:01;3.47;;;1.45;;
82352;SDS011;71954;47.430;18.920;2023-11-18T12:49:41;3.13;;;1.08;;
82352;SDS011;71954;47.430;18.920;2023-11-18T12:54:36;2.10;;;1.00;;
82352;SDS011;71954;47.430;18.920;2023-11-18T12:57:10;3.40;;;1.20;;
82352;SDS011;71954;47.430;18.920;2023-11-18T12:59:41;3.30;;;1.30;;
82352;SDS011;71954;47.430;18.920;2023-11-18T13:02:11;6.38;;;2.80;;
82352;SDS011;71954;47.430;18.920;2023-11-18T13:04:47;6.53;;;2.80;;
82352;SDS011;71954;47.430;18.920;2023-11-18T13:07:16;5.65;;;3.47;;
82352;SDS011;71954;47.430;18.920;2023-11-18T13:09:43;2.50;;;1.23;;
82352;SDS011;71954;47.430;18.920;2023-11-18T13:12:12;5.30;;;1.67;;
82352;SDS011;71954;47.430;18.920;2023-11-18T13:14:45;2.63;;;1.42;;
82352;SDS011;71954;47.430;18.920;2023-11-18T13:17:17;3.42;;;1.23;;
82352;SDS011;71954;47.430;18.920;2023-11-18T13:19:44;3.97;;;1.55;;
82352;SDS011;71954;47.430;18.920;2023-11-18T13:22:12;3.13;;;1.63;;
82352;SDS011;71954;47.430;18.920;2023-11-18T13:24:41;3.08;;;1.35;;
82352;SDS011;71954;47.430;18.920;2023-11-18T13:27:10;4.43;;;1.67;;
82352;SDS011;71954;47.430;18.920;2023-11-18T13:29:43;2.47;;;0.77;;
82352;SDS011;71954;47.430;18.920;2023-11-18T13:32:12;6.68;;;2.65;;
82352;SDS011;71954;47.430;18.920;2023-11-18T13:34:39;5.72;;;2.20;;
82352;SDS011;71954;47.430;18.920;2023-11-18T13:37:09;3.05;;;1.30;;
82352;SDS011;71954;47.430;18.920;2023-11-18T13:39:39;4.05;;;1.73;;
82352;SDS011;71954;47.430;18.920;2023-11-18T13:42:20;8.07;;;2.88;;
82352;SDS011;71954;47.430;18.920;2023-11-18T13:44:49;5.28;;;2.30;;
82352;SDS011;71954;47.430;18.920;2023-11-18T13:49:44;3.97;;;1.85;;
82352;SDS011;71954;47.430;18.920;2023-11-18T13:52:12;4.53;;;1.90;;
82352;SDS011;71954;47.430;18.920;2023-11-18T13:54:42;8.63;;;2.40;;
82352;SDS011;71954;47.430;18.920;2023-11-18T13:57:12;7.30;;;2.70;;
82352;SDS011;71954;47.430;18.920;2023-11-18T13:59:38;22.30;;;7.32;;
82352;SDS011;71954;47.430;18.920;2023-11-18T14:02:05;21.90;;;8.73;;
82352;SDS011;71954;47.430;18.920;2023-11-18T14:04:35;14.75;;;5.85;;
82352;SDS011;71954;47.430;18.920;2023-11-18T14:07:02;16.13;;;5.30;;
82352;SDS011;71954;47.430;18.920;2023-11-18T14:09:35;8.05;;;2.90;;
82352;SDS011;71954;47.430;18.920;2023-11-18T14:12:06;23.08;;;6.85;;
82352;SDS011;71954;47.430;18.920;2023-11-18T14:14:34;12.50;;;3.70;;
82352;SDS011;71954;47.430;18.920;2023-11-18T14:17:01;13.68;;;5.13;;
82352;SDS011;71954;47.430;18.920;2023-11-18T14:19:28;15.55;;;5.47;;
82352;SDS011;71954;47.430;18.920;2023-11-18T14:21:55;6.32;;;2.25;;
82352;SDS011;71954;47.430;18.920;2023-11-18T14:24:22;8.93;;;3.05;;
82352;SDS011;71954;47.430;18.920;2023-11-18T14:26:54;12.02;;;3.65;;
82352;SDS011;71954;47.430;18.920;2023-11-18T14:29:23;4.07;;;1.67;;
82352;SDS011;71954;47.430;18.920;2023-11-18T14:31:54;11.18;;;2.78;;
82352;SDS011;71954;47.430;18.920;2023-11-18T14:34:21;7.95;;;3.15;;
82352;SDS011;71954;47.430;18.920;2023-11-18T14:36:47;5.32;;;2.05;;
82352;SDS011;71954;47.430;18.920;2023-11-18T14:41:47;14.20;;;3.30;;
82352;SDS011;71954;47.430;18.920;2023-11-18T14:44:14;13.90;;;2.58;;
82352;SDS011;71954;47.430;18.920;2023-11-18T14:46:41;20.27;;;4.95;;
82352;SDS011;71954;47.430;18.920;2023-11-18T14:49:07;13.25;;;3.60;;
82352;SDS011;71954;47.430;18.920;2023-11-18T14:51:36;6.63;;;2.75;;
82352;SDS011;71954;47.430;18.920;2023-11-18T14:54:03;7.57;;;2.40;;
82352;SDS011;71954;47.430;18.920;2023-11-18T14:56:32;5.43;;;1.90;;
82352;SDS011;71954;47.430;18.920;2023-11-18T14:59:01;8.63;;;2.83;;
82352;SDS011;71954;47.430;18.920;2023-11-18T15:01:28;8.52;;;2.90;;
82352;SDS011;71954;47.430;18.920;2023-11-18T15:06:25;3.00;;;1.25;;
82352;SDS011;71954;47.430;18.920;2023-11-18T15:08:52;8.05;;;3.35;;
82352;SDS011;71954;47.430;18.920;2023-11-18T15:11:23;9.07;;;3.05;;
82352;SDS011;71954;47.430;18.920;2023-11-18T15:13:50;32.70;;;7.65;;
82352;SDS011;71954;47.430;18.920;2023-11-18T15:16:20;13.93;;;4.22;;
82352;SDS011;71954;47.430;18.920;2023-11-18T15:18:47;14.68;;;2.95;;
82352;SDS011;71954;47.430;18.920;2023-11-18T15:21:14;22.27;;;5.63;;
82352;SDS011;71954;47.430;18.920;2023-11-18T15:23:41;32.53;;;6.60;;
82352;SDS011;71954;47.430;18.920;2023-11-18T15:26:08;28.60;;;6.75;;
82352;SDS011;71954;47.430;18.920;2023-11-18T15:28:36;12.57;;;2.75;;
82352;SDS011;71954;47.430;18.920;2023-11-18T15:31:03;26.05;;;7.07;;
82352;SDS011;71954;47.430;18.920;2023-11-18T15:33:30;7.97;;;2.85;;
82352;SDS011;71954;47.430;18.920;2023-11-18T15:35:58;7.60;;;2.78;;
82352;SDS011;71954;47.430;18.920;2023-11-18T15:38:25;8.55;;;2.72;;
82352;SDS011;71954;47.430;18.920;2023-11-18T15:40:52;11.23;;;3.50;;
82352;SDS011;71954;47.430;18.920;2023-11-18T15:43:20;6.43;;;2.58;;
82352;SDS011;71954;47.430;18.920;2023-11-18T15:45:48;6.63;;;2.53;;
82352;SDS011;71954;47.430;18.920;2023-11-18T15:48:14;5.90;;;2.28;;
82352;SDS011;71954;47.430;18.920;2023-11-18T15:50:42;5.35;;;2.35;;